Time;durP1;ratioP1;P1;durP2;ratioP2;P2;SDS_P1;SDS_P2;PMS_P1;PMS_P2;Temp;Humidity;BMP_temperature;BMP_pressure;BME280_temperature;BME280_humidity;BME280_pressure;Samples;Min_cycle;Max_cycle;Signal;HPM_P1;HPM_P2
2023/05/08 00:01:42;;;;;;;3.73;2.40;;;15.00;99.90;;;;;;5073371;28;20528;-81
2023/05/08 00:04:10;;;;;;;3.50;2.50;;;15.10;99.90;;;;;;5072913;28;20875;-82
2023/05/08 00:06:37;;;;;;;3.70;2.67;;;15.00;99.90;;;;;;5072686;28;20533;-82
2023/05/08 00:09:04;;;;;;;2.97;2.40;;;14.70;99.90;;;;;;5072776;28;20509;-80
2023/05/08 00:11:31;;;;;;;3.97;1.93;;;14.40;99.90;;;;;;5072856;28;20476;-81
2023/05/08 00:13:58;;;;;;;2.23;2.03;;;14.60;99.90;;;;;;5053199;28;20482;-81
2023/05/08 00:16:25;;;;;;;2.47;2.27;;;14.40;99.90;;;;;;5072798;28;20954;-82
2023/05/08 00:18:53;;;;;;;3.83;2.27;;;14.40;99.90;;;;;;5073410;28;20537;-81
2023/05/08 00:21:21;;;;;;;2.70;2.37;;;14.30;99.90;;;;;;5073178;28;20449;-82
2023/05/08 00:23:48;;;;;;;3.53;2.70;;;14.10;99.90;;;;;;5072640;28;20980;-81
2023/05/08 00:26:15;;;;;;;3.57;2.70;;;14.30;99.90;;;;;;5072513;28;20532;-81
2023/05/08 00:28:42;;;;;;;4.10;2.67;;;14.40;99.90;;;;;;5072568;28;20868;-81
2023/05/08 00:31:08;;;;;;;3.10;2.40;;;14.70;99.90;;;;;;5072541;28;20524;-82
2023/05/08 00:33:35;;;;;;;3.07;2.80;;;14.90;99.90;;;;;;5072417;28;20553;-81
2023/05/08 00:36:03;;;;;;;2.97;2.67;;;15.00;99.90;;;;;;5071979;28;20817;-82
2023/05/08 00:38:32;;;;;;;4.10;2.27;;;15.10;99.90;;;;;;5072052;28;21004;-81
2023/05/08 00:40:59;;;;;;;2.97;2.40;;;15.10;99.90;;;;;;5069834;28;20537;-82
2023/05/08 00:43:27;;;;;;;2.63;2.00;;;15.20;99.90;;;;;;5072192;28;20451;-82
2023/05/08 00:45:55;;;;;;;2.87;2.40;;;15.20;99.90;;;;;;5071820;28;20484;-81
2023/05/08 00:48:23;;;;;;;2.83;2.57;;;15.00;99.90;;;;;;5072337;28;20497;-81
2023/05/08 00:50:51;;;;;;;2.57;2.30;;;15.00;99.90;;;;;;5071945;28;20451;-81
2023/05/08 00:53:19;;;;;;;2.67;1.80;;;15.10;99.90;;;;;;5072393;28;20440;-81
2023/05/08 00:55:48;;;;;;;5.27;1.67;;;15.20;99.90;;;;;;5071580;28;20933;-81
2023/05/08 00:58:15;;;;;;;2.50;2.17;;;15.30;99.90;;;;;;5071752;28;20515;-82
2023/05/08 01:00:44;;;;;;;3.07;2.13;;;15.30;99.90;;;;;;5071486;28;20538;-81
2023/05/08 01:03:12;;;;;;;2.30;1.80;;;15.20;99.90;;;;;;5071323;28;20507;-81
2023/05/08 01:05:40;;;;;;;4.23;2.10;;;15.20;99.90;;;;;;5071789;28;20501;-82
2023/05/08 01:08:07;;;;;;;2.03;1.83;;;15.30;99.90;;;;;;5072049;28;20493;-82
2023/05/08 01:10:44;;;;;;;3.77;1.67;;;15.20;99.90;;;;;;5071280;28;20439;-82
2023/05/08 01:13:25;;;;;;;3.00;1.60;;;15.30;99.90;;;;;;5077712;28;20444;-81
2023/05/08 01:15:57;;;;;;;2.10;1.80;;;15.30;99.90;;;;;;5077419;28;20491;-82
2023/05/08 01:18:33;;;;;;;2.60;1.87;;;15.30;99.90;;;;;;5071247;28;20878;-82
2023/05/08 01:21:06;;;;;;;2.53;1.70;;;15.20;99.90;;;;;;5070242;28;20451;-82
2023/05/08 01:23:57;;;;;;;3.13;1.90;;;15.10;99.90;;;;;;5071397;28;20956;-81
2023/05/08 01:26:50;;;;;;;3.00;1.70;;;15.20;99.90;;;;;;5051604;28;20468;-82
2023/05/08 01:29:43;;;;;;;1.63;1.37;;;15.20;99.90;;;;;;5051498;28;20475;-81
2023/05/08 01:32:19;;;;;;;2.03;1.60;;;15.20;99.90;;;;;;5053351;28;20875;-82
2023/05/08 01:34:53;;;;;;;2.40;1.67;;;15.20;99.90;;;;;;5071129;28;20444;-82
2023/05/08 01:37:29;;;;;;;1.87;1.30;;;15.10;99.90;;;;;;5071422;28;20568;-81
2023/05/08 01:40:04;;;;;;;2.87;2.00;;;15.00;99.90;;;;;;5071389;28;20536;-81
2023/05/08 01:42:49;;;;;;;2.50;1.47;;;14.80;99.90;;;;;;5071482;28;20484;-82
2023/05/08 01:45:22;;;;;;;2.67;2.07;;;14.80;99.90;;;;;;5071108;28;20447;-82
2023/05/08 01:48:01;;;;;;;2.83;2.53;;;14.40;99.90;;;;;;5071736;28;20469;-81
2023/05/08 01:50:33;;;;;;;2.13;1.87;;;14.40;99.90;;;;;;5051164;28;20541;-80
2023/05/08 01:53:06;;;;;;;5.10;2.17;;;14.40;99.90;;;;;;5064990;28;20446;-81
2023/05/08 01:55:36;;;;;;;5.23;2.23;;;14.60;99.90;;;;;;5067727;28;20433;-81
2023/05/08 01:58:09;;;;;;;3.87;1.93;;;14.80;99.90;;;;;;5071633;28;20527;-81
2023/05/08 02:00:39;;;;;;;2.77;1.83;;;14.80;99.90;;;;;;5066496;28;20445;-82
2023/05/08 02:03:09;;;;;;;3.50;2.07;;;14.50;99.90;;;;;;5071092;28;20521;-82
2023/05/08 02:05:37;;;;;;;2.40;2.00;;;14.30;99.90;;;;;;5071038;28;20495;-82
2023/05/08 02:08:06;;;;;;;2.73;2.10;;;14.40;99.90;;;;;;5071096;28;20465;-82
2023/05/08 02:10:34;;;;;;;4.60;2.20;;;14.50;99.90;;;;;;5071140;28;20438;-82
2023/05/08 02:13:03;;;;;;;5.93;2.17;;;14.60;99.90;;;;;;5069100;28;20520;-81
2023/05/08 02:15:34;;;;;;;2.90;1.83;;;14.50;99.90;;;;;;5068317;28;20535;-82
2023/05/08 02:18:04;;;;;;;2.13;1.63;;;14.40;99.90;;;;;;5070519;28;20480;-82
2023/05/08 02:20:32;;;;;;;3.40;2.30;;;14.60;99.90;;;;;;5062524;28;20471;-81
2023/05/08 02:23:00;;;;;;;2.53;1.97;;;14.70;99.90;;;;;;5063333;28;20521;-82
2023/05/08 02:25:29;;;;;;;2.03;1.43;;;14.70;99.90;;;;;;5059157;28;20452;-82
2023/05/08 02:27:57;;;;;;;2.70;1.57;;;14.70;99.90;;;;;;5066655;28;20456;-80
2023/05/08 02:30:26;;;;;;;3.80;2.40;;;14.70;99.90;;;;;;5056376;28;20854;-81
2023/05/08 02:32:55;;;;;;;2.13;1.80;;;14.80;99.90;;;;;;5062612;28;20533;-82
2023/05/08 02:35:24;;;;;;;2.53;2.10;;;14.70;99.90;;;;;;5065290;28;20551;-81
2023/05/08 02:37:55;;;;;;;3.70;2.00;;;14.80;99.90;;;;;;5065589;28;20584;-80
2023/05/08 02:40:25;;;;;;;2.13;1.63;;;14.70;99.90;;;;;;5056184;28;20530;-82
2023/05/08 02:42:52;;;;;;;2.93;1.70;;;14.70;99.90;;;;;;5056502;28;20977;-82
2023/05/08 02:45:20;;;;;;;3.10;2.20;;;14.70;99.90;;;;;;5056720;28;21029;-81
2023/05/08 02:47:52;;;;;;;2.50;2.10;;;14.80;99.90;;;;;;5068064;28;20543;-81
2023/05/08 02:50:26;;;;;;;1.87;1.57;;;14.80;99.90;;;;;;5069005;28;20862;-82
2023/05/08 02:53:03;;;;;;;2.50;1.50;;;14.70;99.90;;;;;;5064739;28;20445;-81
2023/05/08 02:55:36;;;;;;;3.90;1.53;;;14.60;99.90;;;;;;5070135;28;20444;-82
2023/05/08 02:58:14;;;;;;;1.83;1.57;;;14.70;99.90;;;;;;5067019;28;20486;-82
2023/05/08 03:00:47;;;;;;;3.00;2.10;;;14.70;99.90;;;;;;5066072;28;21015;-81
2023/05/08 03:03:19;;;;;;;2.87;2.03;;;14.70;99.90;;;;;;5060418;28;20520;-81
2023/05/08 03:05:51;;;;;;;2.20;2.00;;;14.60;99.90;;;;;;5058826;28;20525;-82
2023/05/08 03:08:25;;;;;;;4.33;1.50;;;14.40;99.90;;;;;;5068902;28;20523;-82
2023/05/08 03:10:56;;;;;;;3.57;1.70;;;14.20;99.90;;;;;;5070013;28;20487;-82
2023/05/08 03:13:25;;;;;;;2.57;1.70;;;14.20;99.90;;;;;;5074510;28;20861;-82
2023/05/08 03:15:55;;;;;;;4.90;2.60;;;14.00;99.90;;;;;;5058971;28;20562;-81
2023/05/08 03:18:26;;;;;;;2.20;2.00;;;14.00;99.90;;;;;;5070189;28;20577;-82
2023/05/08 03:20:55;;;;;;;3.30;2.10;;;14.10;99.90;;;;;;5061065;28;20503;-82
2023/05/08 03:23:27;;;;;;;2.90;2.33;;;14.10;99.90;;;;;;5073727;28;20522;-81
2023/05/08 03:25:57;;;;;;;3.30;2.10;;;13.90;99.90;;;;;;5073829;28;20515;-82
2023/05/08 03:28:25;;;;;;;5.23;2.73;;;14.00;99.90;;;;;;5073261;28;20493;-82
2023/05/08 03:30:53;;;;;;;2.40;1.80;;;14.00;99.90;;;;;;5073139;28;20926;-81
2023/05/08 03:33:23;;;;;;;4.23;3.07;;;14.10;99.90;;;;;;5073702;28;20472;-82
2023/05/08 03:35:51;;;;;;;3.03;2.27;;;14.40;99.90;;;;;;5075304;28;20456;-82
2023/05/08 03:38:19;;;;;;;3.73;2.93;;;14.40;99.90;;;;;;5074440;28;20571;-82
2023/05/08 03:40:48;;;;;;;2.53;2.30;;;14.50;99.90;;;;;;5073385;28;20448;-81
2023/05/08 03:43:16;;;;;;;2.80;2.50;;;14.50;99.90;;;;;;5073926;28;20961;-82
2023/05/08 03:45:44;;;;;;;3.50;2.53;;;14.60;99.90;;;;;;5073102;28;20445;-81
2023/05/08 03:48:13;;;;;;;3.90;2.50;;;14.50;99.90;;;;;;5072905;28;20496;-82
2023/05/08 03:50:40;;;;;;;2.57;2.37;;;14.30;99.90;;;;;;5073049;28;20527;-82
2023/05/08 03:53:07;;;;;;;2.50;2.20;;;14.20;99.90;;;;;;5074116;28;20442;-82
2023/05/08 03:55:34;;;;;;;2.60;2.40;;;14.30;99.90;;;;;;5072972;28;20480;-82
2023/05/08 03:58:08;;;;;;;3.70;2.50;;;14.00;99.90;;;;;;5072541;28;21064;-82
2023/05/08 04:00:51;;;;;;;2.60;2.40;;;13.80;99.90;;;;;;5072600;28;20524;-82
2023/05/08 04:03:23;;;;;;;2.20;2.00;;;13.90;99.90;;;;;;5073754;28;20473;-82
2023/05/08 04:05:58;;;;;;;5.20;2.40;;;14.10;99.90;;;;;;5073325;28;20496;-82
2023/05/08 04:08:28;;;;;;;3.43;2.20;;;14.20;99.90;;;;;;5074781;28;20443;-82
2023/05/08 04:11:04;;;;;;;4.30;2.57;;;14.00;99.90;;;;;;5072559;28;20800;-82
2023/05/08 04:13:40;;;;;;;3.43;2.63;;;14.00;99.90;;;;;;5073517;28;20535;-82
2023/05/08 04:16:13;;;;;;;5.43;3.40;;;13.90;99.90;;;;;;5072545;28;20429;-81
2023/05/08 04:18:47;;;;;;;3.60;3.27;;;14.20;99.90;;;;;;5072836;28;20570;-81
2023/05/08 04:21:19;;;;;;;5.77;3.70;;;14.30;99.90;;;;;;5072641;28;20440;-82
2023/05/08 04:23:49;;;;;;;3.50;3.20;;;14.40;99.90;;;;;;5072131;28;20879;-82
2023/05/08 04:26:17;;;;;;;3.17;2.87;;;14.50;99.90;;;;;;5072284;28;20540;-82
2023/05/08 04:28:46;;;;;;;4.47;3.60;;;14.40;99.90;;;;;;5072516;28;20524;-82
2023/05/08 04:31:14;;;;;;;4.23;3.80;;;14.50;99.90;;;;;;5072595;28;20553;-82
2023/05/08 04:33:43;;;;;;;6.20;3.70;;;14.40;99.90;;;;;;5073699;28;20961;-81
2023/05/08 04:36:12;;;;;;;3.57;3.00;;;14.40;99.90;;;;;;5073606;28;20440;-82
2023/05/08 04:38:39;;;;;;;5.80;3.63;;;14.50;99.90;;;;;;5052090;28;20476;-82
2023/05/08 04:41:06;;;;;;;4.00;3.70;;;14.50;99.90;;;;;;5064584;28;20472;-82
2023/05/08 04:43:33;;;;;;;4.90;3.77;;;14.50;99.90;;;;;;5072242;28;20961;-82
2023/05/08 04:46:01;;;;;;;3.60;3.30;;;14.60;99.90;;;;;;5071776;28;20494;-81
2023/05/08 04:48:30;;;;;;;3.37;3.07;;;14.70;99.90;;;;;;5072563;28;20519;-82
2023/05/08 04:50:57;;;;;;;3.87;3.43;;;14.60;99.90;;;;;;5071381;28;20445;-81
2023/05/08 04:53:24;;;;;;;3.97;3.60;;;14.60;99.90;;;;;;5072433;28;20468;-81
2023/05/08 04:55:51;;;;;;;4.83;4.00;;;14.60;99.90;;;;;;5071818;28;20454;-81
2023/05/08 04:58:17;;;;;;;5.10;3.70;;;14.50;99.90;;;;;;5072103;28;20480;-82
2023/05/08 05:00:44;;;;;;;5.70;3.93;;;14.60;99.90;;;;;;5081750;28;21046;-82
2023/05/08 05:03:13;;;;;;;5.60;5.00;;;14.70;99.90;;;;;;5063341;28;20524;-82
2023/05/08 05:05:40;;;;;;;4.73;4.23;;;14.70;99.90;;;;;;5063188;28;20885;-83
2023/05/08 05:08:07;;;;;;;4.20;3.83;;;14.70;99.90;;;;;;5061594;28;20493;-81
2023/05/08 05:10:33;;;;;;;4.40;4.00;;;14.40;99.90;;;;;;5063455;28;20444;-81
2023/05/08 05:13:00;;;;;;;4.33;3.93;;;14.40;99.90;;;;;;5071962;28;20917;-82
2023/05/08 05:15:27;;;;;;;4.20;3.80;;;14.30;99.90;;;;;;5085083;28;20445;-84
2023/05/08 05:17:54;;;;;;;4.93;4.53;;;14.40;99.90;;;;;;5070026;28;20489;-83
2023/05/08 05:20:23;;;;;;;7.17;4.20;;;14.40;99.90;;;;;;5059524;28;20505;-85
2023/05/08 05:22:49;;;;;;;3.40;3.10;;;14.50;99.90;;;;;;5069833;28;20528;-81
2023/05/08 05:25:16;;;;;;;4.00;3.30;;;14.40;99.90;;;;;;5068702;28;20524;-82
2023/05/08 05:27:43;;;;;;;4.93;3.30;;;14.30;99.90;;;;;;5068210;28;20514;-81
2023/05/08 05:30:11;;;;;;;3.60;3.30;;;14.40;99.90;;;;;;5066645;28;20499;-82
2023/05/08 05:32:38;;;;;;;3.40;3.00;;;14.50;99.90;;;;;;5065027;28;20444;-82
2023/05/08 05:35:06;;;;;;;2.87;2.60;;;14.10;99.90;;;;;;5071221;28;20533;-82
2023/05/08 05:37:34;;;;;;;3.73;2.87;;;14.10;99.90;;;;;;5071709;28;20544;-82
2023/05/08 05:40:01;;;;;;;3.03;2.80;;;14.30;99.90;;;;;;5071249;28;20989;-83
2023/05/08 05:42:28;;;;;;;3.17;2.87;;;14.00;99.90;;;;;;5071456;28;20539;-85
2023/05/08 05:44:55;;;;;;;4.20;3.00;;;13.70;99.90;;;;;;5070428;28;20540;-86
2023/05/08 05:47:22;;;;;;;3.27;2.80;;;13.70;99.90;;;;;;5071372;28;21044;-83
2023/05/08 05:49:49;;;;;;;2.90;2.70;;;13.90;99.90;;;;;;5071302;28;20494;-82
2023/05/08 05:52:16;;;;;;;3.40;3.10;;;14.10;99.90;;;;;;5070339;28;20874;-80
2023/05/08 05:54:45;;;;;;;4.20;3.50;;;14.00;99.90;;;;;;5070735;28;20523;-80
2023/05/08 05:57:13;;;;;;;4.13;3.53;;;14.30;99.90;;;;;;5069978;28;20489;-81
2023/05/08 05:59:40;;;;;;;3.03;2.73;;;14.30;99.90;;;;;;5071001;28;20484;-81
2023/05/08 06:02:09;;;;;;;3.97;3.60;;;14.40;99.90;;;;;;5070505;28;20445;-80
2023/05/08 06:04:36;;;;;;;4.80;4.03;;;14.10;99.90;;;;;;5070209;28;20448;-80
2023/05/08 06:07:03;;;;;;;4.07;3.50;;;14.30;99.90;;;;;;5070794;28;20514;-80
2023/05/08 06:09:29;;;;;;;4.53;3.60;;;14.40;99.90;;;;;;5070469;28;20505;-80
2023/05/08 06:11:58;;;;;;;4.33;3.93;;;14.30;99.90;;;;;;5070475;28;20453;-81
2023/05/08 06:14:25;;;;;;;4.47;3.93;;;14.50;99.90;;;;;;5060992;28;20448;-80
2023/05/08 06:16:52;;;;;;;3.80;3.40;;;14.50;99.90;;;;;;5070754;28;20496;-80
2023/05/08 06:19:18;;;;;;;3.67;3.00;;;14.50;99.90;;;;;;5071302;28;20572;-80
2023/05/08 06:21:45;;;;;;;4.57;2.90;;;14.50;99.90;;;;;;5070681;28;20524;-80
2023/05/08 06:24:12;;;;;;;3.50;3.20;;;14.40;99.90;;;;;;5070409;28;20947;-81
2023/05/08 06:26:40;;;;;;;3.50;2.80;;;13.90;99.90;;;;;;5070466;28;20498;-80
2023/05/08 06:29:08;;;;;;;3.40;3.03;;;14.00;99.90;;;;;;5069961;28;20510;-80
2023/05/08 06:31:35;;;;;;;3.70;3.23;;;14.10;99.90;;;;;;5070894;28;20480;-80
2023/05/08 06:34:02;;;;;;;5.40;3.00;;;14.30;99.90;;;;;;5069339;28;20823;-80
2023/05/08 06:36:29;;;;;;;3.37;3.07;;;13.90;99.90;;;;;;5070771;28;20491;-80
2023/05/08 06:38:56;;;;;;;3.33;3.00;;;14.00;99.90;;;;;;5070586;28;20963;-81
2023/05/08 06:41:23;;;;;;;8.30;2.57;;;14.00;99.90;;;;;;5073720;28;20535;-80
2023/05/08 06:43:50;;;;;;;6.20;2.90;;;14.10;99.90;;;;;;5074431;28;21000;-81
2023/05/08 06:46:18;;;;;;;2.73;2.40;;;13.90;99.90;;;;;;5074250;28;20490;-80
2023/05/08 06:48:45;;;;;;;2.90;2.60;;;13.70;99.90;;;;;;5074907;28;20527;-80
2023/05/08 06:51:12;;;;;;;3.10;2.40;;;13.70;99.90;;;;;;5078288;28;20456;-81
2023/05/08 06:53:39;;;;;;;2.53;2.20;;;13.90;99.90;;;;;;5075432;28;20440;-80
2023/05/08 06:56:07;;;;;;;2.80;2.60;;;14.10;99.90;;;;;;5073895;28;20868;-80
2023/05/08 06:58:34;;;;;;;2.50;2.30;;;14.30;99.90;;;;;;5074091;28;20481;-80
2023/05/08 07:01:01;;;;;;;3.40;2.47;;;14.20;99.90;;;;;;5074150;28;20445;-81
2023/05/08 07:03:30;;;;;;;3.40;2.30;;;14.20;99.90;;;;;;5071995;28;20937;-80
2023/05/08 07:05:56;;;;;;;5.63;2.17;;;14.30;99.90;;;;;;5069235;28;20460;-80
2023/05/08 07:08:23;;;;;;;2.57;2.00;;;14.40;99.90;;;;;;5073978;28;20453;-80
2023/05/08 07:10:50;;;;;;;2.47;2.00;;;14.50;99.90;;;;;;5074110;28;20437;-81
2023/05/08 07:13:20;;;;;;;2.43;2.13;;;14.60;99.90;;;;;;5074011;28;20525;-80
2023/05/08 07:15:47;;;;;;;2.57;2.27;;;14.50;99.90;;;;;;5071828;28;20580;-80
2023/05/08 07:18:14;;;;;;;3.23;2.80;;;14.50;99.90;;;;;;5071703;28;20479;-80
2023/05/08 07:20:43;;;;;;;4.77;3.10;;;14.50;99.90;;;;;;5074364;28;20484;-81
2023/05/08 07:23:09;;;;;;;3.43;3.13;;;14.50;99.90;;;;;;5074077;28;20520;-81
2023/05/08 07:25:36;;;;;;;3.30;3.00;;;14.50;99.90;;;;;;5073577;28;20943;-81
2023/05/08 07:28:03;;;;;;;4.00;3.00;;;14.40;99.90;;;;;;5073146;28;20524;-81
2023/05/08 07:30:30;;;;;;;4.73;3.33;;;14.60;99.90;;;;;;5074215;28;20520;-80
2023/05/08 07:32:57;;;;;;;3.50;2.70;;;14.60;99.90;;;;;;5064726;28;20529;-80
2023/05/08 07:35:24;;;;;;;3.67;3.27;;;14.60;99.90;;;;;;5059024;28;20519;-81
2023/05/08 07:37:53;;;;;;;3.10;2.80;;;14.60;99.90;;;;;;5066720;28;20468;-80
2023/05/08 07:40:20;;;;;;;3.60;3.30;;;14.50;99.90;;;;;;5071309;28;20508;-80
2023/05/08 07:42:47;;;;;;;4.40;4.00;;;14.60;99.90;;;;;;5073763;28;20924;-81
2023/05/08 07:45:14;;;;;;;2.53;2.33;;;14.60;99.90;;;;;;5059623;28;20445;-81
2023/05/08 07:47:49;;;;;;;4.70;3.00;;;14.60;99.90;;;;;;5056551;28;20548;-81
2023/05/08 07:50:16;;;;;;;4.30;3.20;;;14.60;99.90;;;;;;5072732;28;20476;-81
2023/05/08 07:52:43;;;;;;;2.90;2.53;;;14.60;99.90;;;;;;5072356;28;20532;-81
2023/05/08 07:55:12;;;;;;;2.63;2.43;;;14.70;99.90;;;;;;5073027;28;20477;-81
2023/05/08 07:57:40;;;;;;;2.50;2.17;;;14.70;99.90;;;;;;5073342;28;21049;-80
2023/05/08 08:00:10;;;;;;;2.83;2.20;;;14.70;99.90;;;;;;5072432;28;20559;-81
2023/05/08 08:02:37;;;;;;;2.70;1.97;;;14.70;99.90;;;;;;5072834;28;20476;-81
2023/05/08 08:05:05;;;;;;;3.77;2.77;;;14.70;99.90;;;;;;5068320;28;20473;-80
2023/05/08 08:07:32;;;;;;;3.20;2.23;;;14.80;99.90;;;;;;5071392;28;20985;-81
2023/05/08 08:09:59;;;;;;;2.20;2.00;;;14.70;99.90;;;;;;5067420;28;20444;-80
2023/05/08 08:12:28;;;;;;;3.80;2.07;;;14.60;99.90;;;;;;5070950;28;20521;-80
2023/05/08 08:14:55;;;;;;;2.30;2.03;;;14.60;99.90;;;;;;5070641;28;20533;-80
2023/05/08 08:17:22;;;;;;;2.67;2.10;;;14.60;99.90;;;;;;5070585;28;20907;-80
2023/05/08 08:19:49;;;;;;;2.63;1.97;;;14.70;99.90;;;;;;5071837;28;20582;-80
2023/05/08 08:22:16;;;;;;;2.47;2.27;;;14.70;99.90;;;;;;5063527;28;20862;-80
2023/05/08 08:24:43;;;;;;;4.43;2.47;;;14.70;99.90;;;;;;5072221;28;20961;-80
2023/05/08 08:27:10;;;;;;;3.30;1.97;;;14.60;99.90;;;;;;5058999;28;20542;-80
2023/05/08 08:29:38;;;;;;;3.67;2.10;;;14.60;99.90;;;;;;5072451;28;20447;-81
2023/05/08 08:32:05;;;;;;;3.00;2.40;;;14.70;99.90;;;;;;5076463;28;20819;-80
2023/05/08 08:34:33;;;;;;;2.60;2.23;;;14.60;99.90;;;;;;5069647;28;20540;-80
2023/05/08 08:37:00;;;;;;;2.07;1.87;;;14.60;99.90;;;;;;5068935;28;20520;-80
2023/05/08 08:39:27;;;;;;;3.20;1.97;;;14.70;99.90;;;;;;5075024;28;20587;-80
2023/05/08 08:41:54;;;;;;;2.63;2.10;;;14.70;99.90;;;;;;5078764;28;20433;-80
2023/05/08 08:44:21;;;;;;;2.43;2.23;;;14.80;99.90;;;;;;5063480;28;20532;-80
2023/05/08 08:46:52;;;;;;;2.70;2.33;;;14.70;99.90;;;;;;5071801;28;20476;-80
2023/05/08 08:49:24;;;;;;;3.00;2.43;;;14.70;99.90;;;;;;5071972;28;20929;-81
2023/05/08 08:51:54;;;;;;;3.60;2.40;;;14.80;99.90;;;;;;5071428;28;20972;-80
2023/05/08 08:54:23;;;;;;;2.97;2.67;;;14.80;99.90;;;;;;5072259;28;20444;-81
2023/05/08 08:56:51;;;;;;;2.10;1.80;;;14.80;99.90;;;;;;5067546;28;20500;-80
2023/05/08 08:59:19;;;;;;;3.20;2.37;;;14.90;99.90;;;;;;5063457;28;21255;-80
2023/05/08 09:01:49;;;;;;;2.70;2.50;;;14.90;99.90;;;;;;5066979;28;20441;-81
2023/05/08 09:04:18;;;;;;;2.70;2.50;;;14.90;99.90;;;;;;5070603;28;20490;-80
2023/05/08 09:06:45;;;;;;;3.07;2.60;;;14.90;99.90;;;;;;5065800;28;20558;-80
2023/05/08 09:09:13;;;;;;;3.03;2.73;;;14.90;99.90;;;;;;5059608;28;20534;-80
2023/05/08 09:11:40;;;;;;;3.67;2.93;;;15.00;99.90;;;;;;5054224;28;21012;-80
2023/05/08 09:14:08;;;;;;;4.10;3.70;;;14.90;99.90;;;;;;5065512;28;20466;-81
2023/05/08 09:16:35;;;;;;;3.43;3.20;;;14.90;99.90;;;;;;5062183;28;20474;-80
2023/05/08 09:19:03;;;;;;;3.50;2.97;;;14.80;99.90;;;;;;5071112;28;21044;-80
2023/05/08 09:21:32;;;;;;;3.77;3.40;;;14.90;99.90;;;;;;5060201;28;21092;-81
2023/05/08 09:24:01;;;;;;;2.97;2.53;;;15.00;99.90;;;;;;5070875;28;20895;-81
2023/05/08 09:26:33;;;;;;;2.97;2.70;;;15.00;99.90;;;;;;5070425;28;20502;-81
2023/05/08 09:29:14;;;;;;;2.60;2.40;;;14.90;99.90;;;;;;5071250;28;20455;-81
2023/05/08 09:31:42;;;;;;;5.83;3.10;;;15.00;99.90;;;;;;5070442;28;20513;-80
2023/05/08 09:34:10;;;;;;;3.07;2.77;;;14.90;99.90;;;;;;5071194;28;20476;-81
2023/05/08 09:36:40;;;;;;;2.97;2.17;;;15.00;99.90;;;;;;5071388;28;20485;-81
2023/05/08 09:39:11;;;;;;;2.60;2.40;;;14.90;99.90;;;;;;5071757;28;20922;-81
2023/05/08 09:41:38;;;;;;;2.07;1.83;;;14.80;99.90;;;;;;5071119;28;20473;-80
2023/05/08 09:44:07;;;;;;;2.43;2.23;;;14.80;99.90;;;;;;5059992;28;20452;-81
2023/05/08 09:46:34;;;;;;;3.67;2.47;;;14.90;99.90;;;;;;5051023;28;20504;-81
2023/05/08 09:49:03;;;;;;;2.60;2.03;;;15.00;99.90;;;;;;5051462;28;20534;-81
2023/05/08 09:51:31;;;;;;;3.40;2.73;;;15.10;99.90;;;;;;5051393;28;20469;-81
2023/05/08 09:54:02;;;;;;;3.07;2.40;;;15.10;99.90;;;;;;5060970;28;20954;-81
2023/05/08 09:56:36;;;;;;;2.60;2.17;;;15.10;99.90;;;;;;5071551;28;20471;-81
2023/05/08 09:59:05;;;;;;;2.67;2.13;;;15.20;99.90;;;;;;5071512;28;20449;-81
2023/05/08 10:01:33;;;;;;;2.30;1.93;;;15.20;99.90;;;;;;5071183;28;20471;-81
2023/05/08 10:04:00;;;;;;;3.07;2.67;;;15.10;99.90;;;;;;5071282;28;20445;-80
2023/05/08 10:06:28;;;;;;;3.13;2.80;;;15.20;99.90;;;;;;5067245;28;20497;-80
2023/05/08 10:09:12;;;;;;;3.10;2.30;;;15.30;99.90;;;;;;5063250;28;20446;-80
2023/05/08 10:11:40;;;;;;;2.80;2.50;;;15.40;99.90;;;;;;5069099;28;20468;-80
2023/05/08 10:14:07;;;;;;;2.77;2.33;;;15.40;99.90;;;;;;5070186;28;20564;-80
2023/05/08 10:16:41;;;;;;;2.97;2.37;;;15.30;99.90;;;;;;5073843;28;21138;-80
2023/05/08 10:19:13;;;;;;;2.70;2.50;;;15.30;99.90;;;;;;5067146;28;20474;-80
2023/05/08 10:21:43;;;;;;;2.60;1.90;;;15.40;99.90;;;;;;5063507;28;20990;-80
2023/05/08 10:24:16;;;;;;;2.73;2.23;;;15.40;99.90;;;;;;5065565;28;20504;-80
2023/05/08 10:26:48;;;;;;;2.60;2.20;;;15.40;99.90;;;;;;5063224;28;20908;-80
2023/05/08 10:29:21;;;;;;;2.20;2.00;;;15.50;99.90;;;;;;5072278;28;20544;-80
2023/05/08 10:31:54;;;;;;;2.70;2.40;;;15.60;99.90;;;;;;5068567;28;20499;-79
2023/05/08 10:34:23;;;;;;;2.80;2.13;;;15.60;99.90;;;;;;5064898;28;20534;-80
2023/05/08 10:36:51;;;;;;;3.90;2.17;;;15.60;99.90;;;;;;5071325;28;20533;-80
2023/05/08 10:39:22;;;;;;;2.77;2.23;;;15.70;99.90;;;;;;5073633;28;20492;-80
2023/05/08 10:41:49;;;;;;;2.47;2.27;;;15.70;99.90;;;;;;5073523;28;20857;-80
2023/05/08 10:44:17;;;;;;;2.87;2.30;;;15.70;99.90;;;;;;5065767;28;20934;-81
2023/05/08 10:46:53;;;;;;;2.63;2.43;;;15.70;99.90;;;;;;5063940;28;20546;-80
2023/05/08 10:49:26;;;;;;;3.07;2.60;;;15.60;99.90;;;;;;5064229;28;20520;-80
2023/05/08 10:52:02;;;;;;;3.90;3.00;;;15.60;99.90;;;;;;5063347;28;20433;-81
2023/05/08 10:54:42;;;;;;;3.20;2.80;;;15.40;99.90;;;;;;5060960;28;20532;-80
2023/05/08 10:57:10;;;;;;;2.60;2.40;;;15.60;99.90;;;;;;5074170;28;20499;-81
2023/05/08 10:59:38;;;;;;;3.83;3.40;;;15.60;99.90;;;;;;5074800;28;20452;-81
2023/05/08 11:02:06;;;;;;;3.20;2.90;;;15.60;99.90;;;;;;5074662;28;20464;-81
2023/05/08 11:04:33;;;;;;;2.50;2.30;;;15.70;99.90;;;;;;5075264;28;20444;-81
2023/05/08 11:07:03;;;;;;;3.70;2.60;;;15.80;99.90;;;;;;5073912;28;20841;-81
2023/05/08 11:09:45;;;;;;;2.87;2.60;;;15.80;99.90;;;;;;5074126;28;20870;-81
2023/05/08 11:12:21;;;;;;;2.70;2.50;;;15.70;99.90;;;;;;5073968;28;20507;-81
2023/05/08 11:14:57;;;;;;;2.83;2.57;;;15.80;99.90;;;;;;5072971;28;20465;-81
2023/05/08 11:17:25;;;;;;;3.57;3.20;;;15.90;99.90;;;;;;5072865;28;20559;-81
2023/05/08 11:19:56;;;;;;;3.20;2.90;;;15.90;99.90;;;;;;5073482;28;20500;-82
2023/05/08 11:22:28;;;;;;;2.90;2.47;;;16.00;99.90;;;;;;5073740;28;20441;-81
2023/05/08 11:24:59;;;;;;;3.20;2.87;;;16.00;99.90;;;;;;5073575;28;20509;-81
2023/05/08 11:28:03;;;;;;;9.33;4.00;;;15.90;99.90;;;;;;5073804;28;20493;-81
2023/05/08 11:30:38;;;;;;;4.50;3.70;;;15.90;99.90;;;;;;5073014;28;21008;-81
2023/05/08 11:33:28;;;;;;;4.33;2.80;;;16.00;99.90;;;;;;5073578;28;20595;-82
2023/05/08 11:35:57;;;;;;;3.50;3.20;;;16.00;99.90;;;;;;5074033;28;20536;-82
2023/05/08 11:38:26;;;;;;;4.30;3.40;;;16.00;99.90;;;;;;5073829;28;20496;-81
2023/05/08 11:41:03;;;;;;;3.33;3.03;;;16.10;99.90;;;;;;5073359;28;20899;-82
2023/05/08 11:43:59;;;;;;;4.40;3.97;;;16.00;99.90;;;;;;5073148;28;20512;-81
2023/05/08 11:46:36;;;;;;;6.80;5.77;;;16.00;99.90;;;;;;5077770;28;20473;-81
2023/05/08 11:49:03;;;;;;;4.90;4.43;;;16.00;99.90;;;;;;5073772;28;20529;-81
2023/05/08 11:51:31;;;;;;;5.90;5.30;;;16.00;99.90;;;;;;5073572;28;20528;-81
2023/05/08 11:53:59;;;;;;;5.63;4.17;;;16.00;99.90;;;;;;5073029;28;20475;-81
2023/05/08 11:56:27;;;;;;;5.40;4.90;;;16.00;99.90;;;;;;5073085;28;20555;-81
2023/05/08 11:59:03;;;;;;;5.83;4.23;;;16.10;99.90;;;;;;5073449;28;20476;-81
2023/05/08 12:01:31;;;;;;;6.40;5.80;;;16.10;99.90;;;;;;5073116;28;20995;-81
2023/05/08 12:04:03;;;;;;;5.43;4.83;;;16.20;99.90;;;;;;5073285;28;20528;-81
2023/05/08 12:06:31;;;;;;;5.00;4.50;;;16.20;99.90;;;;;;5072587;28;20911;-81
2023/05/08 12:08:58;;;;;;;3.87;3.50;;;16.30;99.90;;;;;;5072954;28;20934;-81
2023/05/08 12:11:27;;;;;;;4.23;3.67;;;16.20;99.90;;;;;;5073289;28;20809;-81
2023/05/08 12:13:54;;;;;;;5.60;5.03;;;16.20;99.90;;;;;;5073147;28;20462;-81
2023/05/08 12:16:23;;;;;;;5.20;4.70;;;16.30;99.90;;;;;;5072856;28;20500;-81
2023/05/08 12:18:50;;;;;;;6.47;4.73;;;16.30;99.90;;;;;;5072679;28;20494;-81
2023/05/08 12:21:18;;;;;;;7.03;6.33;;;16.30;99.90;;;;;;5072690;28;20514;-81
2023/05/08 12:23:44;;;;;;;5.13;4.53;;;16.30;99.90;;;;;;5072822;28;20476;-81
2023/05/08 12:26:12;;;;;;;6.70;4.70;;;16.30;99.90;;;;;;5084182;28;20451;-81
2023/05/08 12:28:43;;;;;;;5.07;4.53;;;16.40;99.90;;;;;;5073151;28;20440;-81
2023/05/08 12:31:11;;;;;;;5.90;4.93;;;16.50;99.90;;;;;;5071982;28;20437;-81
2023/05/08 12:33:38;;;;;;;5.27;4.77;;;16.60;99.90;;;;;;5072940;28;20431;-81
2023/05/08 12:36:06;;;;;;;6.63;5.23;;;16.60;99.90;;;;;;5072218;28;20446;-81
2023/05/08 12:38:33;;;;;;;4.80;4.30;;;16.60;99.90;;;;;;5071930;28;20460;-81
2023/05/08 12:41:05;;;;;;;5.87;5.03;;;16.70;99.90;;;;;;5072177;28;20593;-81
2023/05/08 12:43:33;;;;;;;4.13;3.67;;;16.70;99.90;;;;;;5072545;28;20830;-81
2023/05/08 12:46:02;;;;;;;5.30;4.50;;;16.80;99.90;;;;;;5071971;28;20486;-81
2023/05/08 12:48:30;;;;;;;5.10;4.60;;;16.90;99.90;;;;;;5072263;28;20888;-81
2023/05/08 12:51:02;;;;;;;6.50;5.30;;;16.80;99.90;;;;;;5072109;28;20470;-80
2023/05/08 12:53:31;;;;;;;5.87;5.27;;;16.80;99.90;;;;;;5068992;28;20462;-80
2023/05/08 12:56:01;;;;;;;5.47;4.50;;;16.80;99.90;;;;;;5071433;28;20442;-80
2023/05/08 12:58:29;;;;;;;5.77;5.20;;;16.80;99.90;;;;;;5072200;28;20481;-80
2023/05/08 13:01:08;;;;;;;5.23;4.73;;;16.80;99.90;;;;;;5071520;28;20916;-80